»·PEaware :: ASA515 KMRY-KRNO

ASA515 :: KMRY-KRNO

FLIGHT INFORMATION

Flight Status: Arrived
Operator:
Alaska Airlines
More flights by this operator :: More flights under this callsign
Pilot: Doug L. (8712)
Aircraft: BOEING 737-800
(B738)
More flights by this aircraft type
Origin: KMRY Monterey Peninsula
United States
Destination: KRNO Reno/Tahoe Intl
United States
More flights between these airports :: More routes between these airports
Route: +MRY4 SAC SIER3
File this flight plan on PilotEdge
Remarks:
Altitude:
(Current/Filed)
31,000ft
Speed:
(Current/Filed)
450kts
Departed: 10-Jun-18 09:51 AM
Arrived: 10-Jun-18 10:31 AM
Distance/Time
Traveled:
201nm/0:40
Distance/Time
To Go:
Arrived

Flight Plot

Page will automatically refresh every two minutes.

Flight plan parsing failed; only flown route is shown


Map Options




Map Legend


Flown Route
Filed Route
Departure Airport
Arrival Airport
Navaid (VOR, NDB)
Fix

Horizontal Profiles

Position Reports

Time Latitude Longitude Heading Altitude Ground
Speed
10-Jun-18 09:34 36.587453 -121.850343 204 264ft 0kts
10-Jun-18 09:35 36.587452 -121.850343 204 264ft 0kts
10-Jun-18 09:36 36.587451 -121.850344 204 265ft 0kts
10-Jun-18 09:37 36.587450 -121.850345 204 265ft 0kts
10-Jun-18 09:38 36.587449 -121.850345 204 265ft 0kts
10-Jun-18 09:39 36.587448 -121.850346 204 265ft 0kts
10-Jun-18 09:40 36.587446 -121.850347 204 265ft 0kts
10-Jun-18 09:41 36.587445 -121.850347 204 265ft 0kts
10-Jun-18 09:42 36.587445 -121.850347 204 265ft 0kts
10-Jun-18 09:43 36.587445 -121.850347 204 265ft 0kts
10-Jun-18 09:44 36.587445 -121.850347 204 265ft 0kts
10-Jun-18 09:45 36.587906 -121.850262 165 265ft 2kts
10-Jun-18 09:46 36.588049 -121.850328 152 265ft 0kts
10-Jun-18 09:47 36.587545 -121.849169 112 265ft 19kts
10-Jun-18 09:48 36.585559 -121.843412 112 265ft 8kts
10-Jun-18 09:49 36.582839 -121.835526 113 265ft 11kts
10-Jun-18 09:50 36.583374 -121.833666 294 265ft 7kts
10-Jun-18 09:51 36.597645 -121.871393 309 1667ft 174kts
10-Jun-18 09:52 36.646483 -121.896149 343 4478ft 217kts
10-Jun-18 09:53 36.710721 -121.901514 7 7396ft 258kts
10-Jun-18 09:54 36.782842 -121.887259 5 11006ft 267kts
10-Jun-18 09:55 36.858876 -121.872189 3 14074ft 284kts
10-Jun-18 09:56 36.939170 -121.856242 2 16944ft 300kts
10-Jun-18 09:57 37.023900 -121.839372 1 19655ft 314kts
10-Jun-18 09:58 37.111806 -121.821933 1 22140ft 326kts
10-Jun-18 09:59 37.203192 -121.803727 1 24380ft 339kts
10-Jun-18 10:00 37.299609 -121.784452 1 25171ft 372kts
10-Jun-18 10:01 37.408947 -121.762521 2 25169ft 422kts
10-Jun-18 10:02 37.529484 -121.738264 2 25160ft 454kts
10-Jun-18 10:03 37.657330 -121.712448 2 25159ft 473kts
10-Jun-18 10:04 37.787850 -121.685998 2 25158ft 475kts
10-Jun-18 10:05 37.912917 -121.625218 27 25158ft 499kts
10-Jun-18 10:06 38.028094 -121.525698 27 25148ft 500kts
10-Jun-18 10:07 38.142323 -121.426214 27 25145ft 500kts
10-Jun-18 10:08 38.257411 -121.326092 27 25145ft 501kts
10-Jun-18 10:09 38.372625 -121.225475 27 25143ft 501kts
10-Jun-18 10:10 38.487065 -121.125014 27 25143ft 502kts
10-Jun-18 10:11 38.602338 -121.023385 27 25155ft 502kts
10-Jun-18 10:12 38.715043 -120.923619 27 25168ft 502kts
10-Jun-18 10:13 38.820658 -120.829772 27 25176ft 499kts
10-Jun-18 10:14 38.933834 -120.728824 27 25180ft 493kts
10-Jun-18 10:15 39.040209 -120.633583 26 25066ft 432kts
10-Jun-18 10:16 39.137740 -120.545956 26 22984ft 422kts
10-Jun-18 10:17 39.232783 -120.460511 26 21068ft 408kts
10-Jun-18 10:18 39.324015 -120.377862 26 19268ft 394kts
10-Jun-18 10:19 39.399326 -120.276479 48 17470ft 400kts
10-Jun-18 10:20 39.467435 -120.166840 44 15662ft 375kts
10-Jun-18 10:21 39.528724 -120.070362 44 14992ft 316kts
10-Jun-18 10:22 39.580282 -119.987477 44 13821ft 298kts
10-Jun-18 10:23 39.633571 -119.905728 44 11882ft 293kts
10-Jun-18 10:24 39.687699 -119.829161 44 10079ft 276kts
10-Jun-18 10:25 39.736728 -119.761898 55 9945ft 248kts
10-Jun-18 10:26 39.703893 -119.701884 181 8296ft 256kts
10-Jun-18 10:27 39.640871 -119.720721 216 7393ft 224kts
10-Jun-18 10:28 39.595806 -119.765501 207 6165ft 176kts
10-Jun-18 10:29 39.551308 -119.769355 178 5212ft 153kts
10-Jun-18 10:30 39.509160 -119.769230 178 4429ft 149kts
10-Jun-18 10:31 39.492817 -119.770345 247 4423ft 0kts
10-Jun-18 10:32 39.494277 -119.771530 0 4423ft 27kts
10-Jun-18 10:33 39.500531 -119.771471 359 4423ft 17kts
10-Jun-18 10:34 39.506904 -119.771482 359 4423ft 17kts
10-Jun-18 10:35 39.507441 -119.773486 198 4423ft 0kts
10-Jun-18 10:36 39.507441 -119.773486 198 4423ft 0kts

Navigation Log

Ident Type
Flight plan parsing failed, navigation log unavailable